Terminal Aerodrome Forecast
Issued by NWS Denver/Boulder, CO

Home | Current Version | Previous Version | Text Only | Print | Product List | Glossary On
Versions: 1 2 3 4 5 6 7 8 9 10 11 12 13 14 15 16 17 18 19 20 21 22 23 24 25 26 27 28 29 30 31 32 33 34 35 36 37 38
000
FTUS45 KBOU 182322
TAFDEN
TAF
KDEN 182322Z 1900/2006 09007KT P6SM FEW100
     FM190200 12009KT P6SM FEW110
     FM190500 17008KT P6SM FEW120
     FM190700 20010KT P6SM SKC
     FM191200 23009KT P6SM SKC
     FM191500 VRB05KT P6SM SKC
     FM191900 04005KT P6SM FEW100
     FM200100 14010KT P6SM FEW100 SCT180=

USA.gov is the U.S. government's official web portal to all federal, state and local government web resources and services.